sensor_id;sensor_type;location;lat;lon;timestamp;P1;durP1;ratioP1;P2;durP2;ratioP2
20036;SDS011;10179;42.640;23.312;2022-11-22T00:02:23;2.08;;;1.60;;
20036;SDS011;10179;42.640;23.312;2022-11-22T00:04:49;1.50;;;1.40;;
20036;SDS011;10179;42.640;23.312;2022-11-22T00:07:14;1.98;;;1.60;;
20036;SDS011;10179;42.640;23.312;2022-11-22T00:09:40;2.50;;;1.80;;
20036;SDS011;10179;42.640;23.312;2022-11-22T00:12:05;2.75;;;1.83;;
20036;SDS011;10179;42.640;23.312;2022-11-22T00:14:31;1.67;;;1.55;;
20036;SDS011;10179;42.640;23.312;2022-11-22T00:16:56;2.30;;;2.00;;
20036;SDS011;10179;42.640;23.312;2022-11-22T00:19:21;2.33;;;1.92;;
20036;SDS011;10179;42.640;23.312;2022-11-22T00:21:47;2.58;;;1.85;;
20036;SDS011;10179;42.640;23.312;2022-11-22T00:24:12;3.33;;;2.00;;
20036;SDS011;10179;42.640;23.312;2022-11-22T00:26:38;2.08;;;1.77;;
20036;SDS011;10179;42.640;23.312;2022-11-22T00:29:03;2.60;;;2.05;;
20036;SDS011;10179;42.640;23.312;2022-11-22T00:31:29;2.55;;;1.90;;
20036;SDS011;10179;42.640;23.312;2022-11-22T00:33:54;2.70;;;2.17;;
20036;SDS011;10179;42.640;23.312;2022-11-22T00:36:19;2.88;;;2.03;;
20036;SDS011;10179;42.640;23.312;2022-11-22T00:38:45;2.53;;;1.90;;
20036;SDS011;10179;42.640;23.312;2022-11-22T00:41:10;2.67;;;2.05;;
20036;SDS011;10179;42.640;23.312;2022-11-22T00:43:35;2.40;;;2.00;;
20036;SDS011;10179;42.640;23.312;2022-11-22T00:46:01;2.00;;;1.60;;
20036;SDS011;10179;42.640;23.312;2022-11-22T00:48:26;2.65;;;2.20;;
20036;SDS011;10179;42.640;23.312;2022-11-22T00:50:52;3.08;;;2.25;;
20036;SDS011;10179;42.640;23.312;2022-11-22T00:53:17;2.72;;;2.13;;
20036;SDS011;10179;42.640;23.312;2022-11-22T00:55:46;2.17;;;1.90;;
20036;SDS011;10179;42.640;23.312;2022-11-22T00:58:11;3.05;;;1.95;;
20036;SDS011;10179;42.640;23.312;2022-11-22T01:00:37;3.40;;;2.20;;
20036;SDS011;10179;42.640;23.312;2022-11-22T01:03:02;2.53;;;2.20;;
20036;SDS011;10179;42.640;23.312;2022-11-22T01:05:27;3.78;;;2.50;;
20036;SDS011;10179;42.640;23.312;2022-11-22T01:07:53;3.28;;;2.25;;
20036;SDS011;10179;42.640;23.312;2022-11-22T01:10:18;3.90;;;2.42;;
20036;SDS011;10179;42.640;23.312;2022-11-22T01:12:44;2.65;;;2.30;;
20036;SDS011;10179;42.640;23.312;2022-11-22T01:15:09;2.30;;;1.83;;
20036;SDS011;10179;42.640;23.312;2022-11-22T01:17:35;4.65;;;1.92;;
20036;SDS011;10179;42.640;23.312;2022-11-22T01:20:00;2.78;;;1.90;;
20036;SDS011;10179;42.640;23.312;2022-11-22T01:22:26;3.40;;;2.38;;
20036;SDS011;10179;42.640;23.312;2022-11-22T01:24:51;3.55;;;2.50;;
20036;SDS011;10179;42.640;23.312;2022-11-22T01:27:16;4.90;;;2.55;;
20036;SDS011;10179;42.640;23.312;2022-11-22T01:29:42;3.10;;;2.50;;
20036;SDS011;10179;42.640;23.312;2022-11-22T01:32:07;3.92;;;2.60;;
20036;SDS011;10179;42.640;23.312;2022-11-22T01:34:32;3.63;;;2.50;;
20036;SDS011;10179;42.640;23.312;2022-11-22T01:36:58;2.90;;;2.40;;
20036;SDS011;10179;42.640;23.312;2022-11-22T01:39:23;3.60;;;2.35;;
20036;SDS011;10179;42.640;23.312;2022-11-22T01:41:49;4.28;;;2.58;;
20036;SDS011;10179;42.640;23.312;2022-11-22T01:44:18;3.42;;;2.38;;
20036;SDS011;10179;42.640;23.312;2022-11-22T01:46:45;3.45;;;2.55;;
20036;SDS011;10179;42.640;23.312;2022-11-22T01:51:48;4.65;;;3.03;;
20036;SDS011;10179;42.640;23.312;2022-11-22T01:54:18;4.95;;;3.30;;
20036;SDS011;10179;42.640;23.312;2022-11-22T01:56:52;6.25;;;3.15;;
20036;SDS011;10179;42.640;23.312;2022-11-22T01:59:21;5.43;;;3.10;;
20036;SDS011;10179;42.640;23.312;2022-11-22T02:01:51;5.05;;;3.60;;
20036;SDS011;10179;42.640;23.312;2022-11-22T02:04:18;4.93;;;3.20;;
20036;SDS011;10179;42.640;23.312;2022-11-22T02:09:32;5.07;;;3.63;;
20036;SDS011;10179;42.640;23.312;2022-11-22T02:12:00;6.38;;;4.10;;
20036;SDS011;10179;42.640;23.312;2022-11-22T02:14:27;6.82;;;4.20;;
20036;SDS011;10179;42.640;23.312;2022-11-22T02:16:55;6.72;;;4.80;;
20036;SDS011;10179;42.640;23.312;2022-11-22T02:19:53;6.68;;;4.75;;
20036;SDS011;10179;42.640;23.312;2022-11-22T02:28:04;9.55;;;5.53;;
20036;SDS011;10179;42.640;23.312;2022-11-22T02:30:31;12.90;;;5.05;;
20036;SDS011;10179;42.640;23.312;2022-11-22T02:32:56;10.13;;;5.80;;
20036;SDS011;10179;42.640;23.312;2022-11-22T02:35:22;9.05;;;6.10;;
20036;SDS011;10179;42.640;23.312;2022-11-22T02:37:57;10.57;;;6.65;;
20036;SDS011;10179;42.640;23.312;2022-11-22T02:40:24;9.48;;;6.38;;
20036;SDS011;10179;42.640;23.312;2022-11-22T02:42:54;7.00;;;5.20;;
20036;SDS011;10179;42.640;23.312;2022-11-22T02:45:24;8.90;;;5.20;;
20036;SDS011;10179;42.640;23.312;2022-11-22T02:47:49;8.90;;;5.53;;
20036;SDS011;10179;42.640;23.312;2022-11-22T02:50:15;8.88;;;5.32;;
20036;SDS011;10179;42.640;23.312;2022-11-22T02:52:40;8.30;;;6.15;;
20036;SDS011;10179;42.640;23.312;2022-11-22T02:55:06;8.48;;;6.03;;
20036;SDS011;10179;42.640;23.312;2022-11-22T02:57:32;10.82;;;6.63;;
20036;SDS011;10179;42.640;23.312;2022-11-22T02:59:57;8.65;;;6.32;;
20036;SDS011;10179;42.640;23.312;2022-11-22T03:02:22;7.03;;;5.22;;
20036;SDS011;10179;42.640;23.312;2022-11-22T03:04:48;7.25;;;4.53;;
20036;SDS011;10179;42.640;23.312;2022-11-22T03:07:13;4.43;;;3.63;;
20036;SDS011;10179;42.640;23.312;2022-11-22T03:09:39;5.45;;;4.05;;
20036;SDS011;10179;42.640;23.312;2022-11-22T03:12:04;5.55;;;4.03;;
20036;SDS011;10179;42.640;23.312;2022-11-22T03:14:30;6.15;;;4.13;;
20036;SDS011;10179;42.640;23.312;2022-11-22T03:16:55;5.30;;;4.15;;
20036;SDS011;10179;42.640;23.312;2022-11-22T03:19:20;5.63;;;4.18;;
20036;SDS011;10179;42.640;23.312;2022-11-22T03:21:46;7.53;;;4.90;;
20036;SDS011;10179;42.640;23.312;2022-11-22T03:24:12;8.18;;;5.50;;
20036;SDS011;10179;42.640;23.312;2022-11-22T03:26:37;7.85;;;5.72;;
20036;SDS011;10179;42.640;23.312;2022-11-22T03:29:03;8.85;;;6.60;;
20036;SDS011;10179;42.640;23.312;2022-11-22T03:31:28;10.63;;;6.85;;
20036;SDS011;10179;42.640;23.312;2022-11-22T03:33:54;10.00;;;6.95;;
20036;SDS011;10179;42.640;23.312;2022-11-22T03:36:20;10.77;;;6.40;;
20036;SDS011;10179;42.640;23.312;2022-11-22T03:38:46;11.07;;;7.35;;
20036;SDS011;10179;42.640;23.312;2022-11-22T03:41:12;9.95;;;6.30;;
20036;SDS011;10179;42.640;23.312;2022-11-22T03:43:37;9.02;;;5.50;;
20036;SDS011;10179;42.640;23.312;2022-11-22T03:46:03;8.55;;;5.15;;
20036;SDS011;10179;42.640;23.312;2022-11-22T03:48:28;7.57;;;4.15;;
20036;SDS011;10179;42.640;23.312;2022-11-22T03:51:01;10.18;;;4.30;;
20036;SDS011;10179;42.640;23.312;2022-11-22T03:53:27;9.40;;;4.70;;
20036;SDS011;10179;42.640;23.312;2022-11-22T03:55:53;7.65;;;4.90;;
20036;SDS011;10179;42.640;23.312;2022-11-22T03:58:18;9.23;;;4.45;;
20036;SDS011;10179;42.640;23.312;2022-11-22T04:00:43;11.25;;;5.53;;
20036;SDS011;10179;42.640;23.312;2022-11-22T04:03:09;7.60;;;5.10;;
20036;SDS011;10179;42.640;23.312;2022-11-22T04:05:34;10.70;;;5.50;;
20036;SDS011;10179;42.640;23.312;2022-11-22T04:08:00;10.50;;;6.47;;
20036;SDS011;10179;42.640;23.312;2022-11-22T04:10:25;14.68;;;7.40;;
20036;SDS011;10179;42.640;23.312;2022-11-22T04:12:51;15.13;;;8.40;;
20036;SDS011;10179;42.640;23.312;2022-11-22T04:15:20;15.18;;;8.80;;
20036;SDS011;10179;42.640;23.312;2022-11-22T04:17:45;16.60;;;8.82;;
20036;SDS011;10179;42.640;23.312;2022-11-22T04:20:22;20.73;;;9.00;;
20036;SDS011;10179;42.640;23.312;2022-11-22T04:23:16;10.77;;;6.15;;
20036;SDS011;10179;42.640;23.312;2022-11-22T04:25:47;11.48;;;4.80;;
20036;SDS011;10179;42.640;23.312;2022-11-22T04:28:15;8.95;;;3.97;;
20036;SDS011;10179;42.640;23.312;2022-11-22T04:30:42;6.70;;;3.95;;
20036;SDS011;10179;42.640;23.312;2022-11-22T04:33:27;6.90;;;4.82;;
20036;SDS011;10179;42.640;23.312;2022-11-22T04:35:53;7.72;;;5.03;;
20036;SDS011;10179;42.640;23.312;2022-11-22T04:38:19;7.85;;;4.30;;
20036;SDS011;10179;42.640;23.312;2022-11-22T04:40:45;6.38;;;4.30;;
20036;SDS011;10179;42.640;23.312;2022-11-22T04:43:19;6.07;;;3.88;;
20036;SDS011;10179;42.640;23.312;2022-11-22T04:46:07;6.70;;;4.18;;
20036;SDS011;10179;42.640;23.312;2022-11-22T04:48:33;6.68;;;4.10;;
20036;SDS011;10179;42.640;23.312;2022-11-22T04:50:59;8.82;;;4.10;;
20036;SDS011;10179;42.640;23.312;2022-11-22T04:53:43;5.32;;;3.83;;
20036;SDS011;10179;42.640;23.312;2022-11-22T04:56:09;5.03;;;3.47;;
20036;SDS011;10179;42.640;23.312;2022-11-22T04:58:35;5.70;;;4.30;;
20036;SDS011;10179;42.640;23.312;2022-11-22T05:01:00;6.60;;;4.03;;
20036;SDS011;10179;42.640;23.312;2022-11-22T05:03:25;6.93;;;3.88;;
20036;SDS011;10179;42.640;23.312;2022-11-22T05:05:51;4.47;;;3.63;;
20036;SDS011;10179;42.640;23.312;2022-11-22T05:08:16;5.45;;;3.80;;
20036;SDS011;10179;42.640;23.312;2022-11-22T05:10:42;6.45;;;4.00;;
20036;SDS011;10179;42.640;23.312;2022-11-22T05:13:24;6.57;;;4.35;;
20036;SDS011;10179;42.640;23.312;2022-11-22T05:16:01;8.38;;;4.30;;
20036;SDS011;10179;42.640;23.312;2022-11-22T05:18:27;10.40;;;5.10;;
20036;SDS011;10179;42.640;23.312;2022-11-22T05:20:53;7.93;;;5.43;;
20036;SDS011;10179;42.640;23.312;2022-11-22T05:23:20;9.05;;;5.78;;
20036;SDS011;10179;42.640;23.312;2022-11-22T05:26:05;9.73;;;6.18;;
20036;SDS011;10179;42.640;23.312;2022-11-22T05:28:32;7.13;;;5.43;;
20036;SDS011;10179;42.640;23.312;2022-11-22T05:30:58;6.93;;;4.80;;
20036;SDS011;10179;42.640;23.312;2022-11-22T05:33:29;8.93;;;5.43;;
20036;SDS011;10179;42.640;23.312;2022-11-22T05:35:55;7.88;;;5.22;;
20036;SDS011;10179;42.640;23.312;2022-11-22T05:38:23;8.27;;;6.30;;
20036;SDS011;10179;42.640;23.312;2022-11-22T05:40:48;10.38;;;6.57;;
20036;SDS011;10179;42.640;23.312;2022-11-22T05:43:14;9.80;;;6.90;;
20036;SDS011;10179;42.640;23.312;2022-11-22T05:45:39;10.65;;;7.60;;
20036;SDS011;10179;42.640;23.312;2022-11-22T05:48:04;11.88;;;7.28;;
20036;SDS011;10179;42.640;23.312;2022-11-22T05:50:30;10.18;;;6.80;;
20036;SDS011;10179;42.640;23.312;2022-11-22T05:52:59;11.00;;;6.80;;
20036;SDS011;10179;42.640;23.312;2022-11-22T05:55:25;8.07;;;5.68;;
20036;SDS011;10179;42.640;23.312;2022-11-22T05:57:50;11.50;;;7.72;;
20036;SDS011;10179;42.640;23.312;2022-11-22T06:00:16;13.63;;;7.95;;
20036;SDS011;10179;42.640;23.312;2022-11-22T06:02:42;13.98;;;7.65;;
20036;SDS011;10179;42.640;23.312;2022-11-22T06:05:07;20.48;;;9.95;;
20036;SDS011;10179;42.640;23.312;2022-11-22T06:07:33;16.92;;;9.07;;
20036;SDS011;10179;42.640;23.312;2022-11-22T06:09:58;16.90;;;7.90;;
20036;SDS011;10179;42.640;23.312;2022-11-22T06:12:23;8.65;;;6.05;;
20036;SDS011;10179;42.640;23.312;2022-11-22T06:14:49;14.38;;;8.65;;
20036;SDS011;10179;42.640;23.312;2022-11-22T06:17:14;54.55;;;30.92;;
20036;SDS011;10179;42.640;23.312;2022-11-22T06:19:39;48.22;;;25.80;;
20036;SDS011;10179;42.640;23.312;2022-11-22T06:22:05;28.85;;;16.23;;
20036;SDS011;10179;42.640;23.312;2022-11-22T06:24:30;25.73;;;14.25;;
20036;SDS011;10179;42.640;23.312;2022-11-22T06:26:56;26.70;;;12.63;;
20036;SDS011;10179;42.640;23.312;2022-11-22T06:29:21;23.92;;;9.55;;
20036;SDS011;10179;42.640;23.312;2022-11-22T06:31:46;21.65;;;10.98;;
20036;SDS011;10179;42.640;23.312;2022-11-22T06:34:12;16.48;;;9.13;;
20036;SDS011;10179;42.640;23.312;2022-11-22T06:36:38;13.40;;;8.30;;
20036;SDS011;10179;42.640;23.312;2022-11-22T06:39:04;10.48;;;6.72;;
20036;SDS011;10179;42.640;23.312;2022-11-22T06:41:31;8.60;;;5.65;;
20036;SDS011;10179;42.640;23.312;2022-11-22T06:43:58;7.72;;;5.20;;
20036;SDS011;10179;42.640;23.312;2022-11-22T06:46:32;9.80;;;6.07;;
20036;SDS011;10179;42.640;23.312;2022-11-22T06:48:57;11.15;;;6.68;;
20036;SDS011;10179;42.640;23.312;2022-11-22T06:51:24;20.33;;;9.38;;
20036;SDS011;10179;42.640;23.312;2022-11-22T06:53:51;22.83;;;10.95;;
20036;SDS011;10179;42.640;23.312;2022-11-22T06:56:20;21.10;;;10.43;;
20036;SDS011;10179;42.640;23.312;2022-11-22T06:58:48;12.68;;;7.55;;
20036;SDS011;10179;42.640;23.312;2022-11-22T07:01:16;10.60;;;6.57;;
20036;SDS011;10179;42.640;23.312;2022-11-22T07:03:43;10.85;;;6.68;;
20036;SDS011;10179;42.640;23.312;2022-11-22T07:06:10;12.50;;;6.57;;
20036;SDS011;10179;42.640;23.312;2022-11-22T07:08:37;14.82;;;6.50;;
20036;SDS011;10179;42.640;23.312;2022-11-22T07:13:30;17.52;;;8.02;;
20036;SDS011;10179;42.640;23.312;2022-11-22T07:15:56;13.93;;;7.22;;
20036;SDS011;10179;42.640;23.312;2022-11-22T07:18:23;10.35;;;6.95;;
20036;SDS011;10179;42.640;23.312;2022-11-22T07:20:48;10.82;;;7.00;;
20036;SDS011;10179;42.640;23.312;2022-11-22T07:23:14;9.98;;;6.47;;
20036;SDS011;10179;42.640;23.312;2022-11-22T07:25:46;11.40;;;6.88;;
20036;SDS011;10179;42.640;23.312;2022-11-22T07:28:12;9.27;;;6.05;;
20036;SDS011;10179;42.640;23.312;2022-11-22T07:30:39;14.32;;;6.68;;
20036;SDS011;10179;42.640;23.312;2022-11-22T07:33:04;10.45;;;6.85;;
20036;SDS011;10179;42.640;23.312;2022-11-22T07:35:30;12.40;;;6.75;;
20036;SDS011;10179;42.640;23.312;2022-11-22T07:37:56;12.10;;;7.35;;
20036;SDS011;10179;42.640;23.312;2022-11-22T07:40:22;10.23;;;6.57;;
20036;SDS011;10179;42.640;23.312;2022-11-22T07:42:47;15.32;;;7.40;;
20036;SDS011;10179;42.640;23.312;2022-11-22T07:45:12;11.63;;;7.15;;
20036;SDS011;10179;42.640;23.312;2022-11-22T07:47:38;13.95;;;6.78;;
20036;SDS011;10179;42.640;23.312;2022-11-22T07:50:03;16.55;;;7.55;;
20036;SDS011;10179;42.640;23.312;2022-11-22T07:52:29;7.40;;;4.97;;
20036;SDS011;10179;42.640;23.312;2022-11-22T07:54:55;9.13;;;5.93;;
20036;SDS011;10179;42.640;23.312;2022-11-22T07:57:20;8.70;;;6.15;;
20036;SDS011;10179;42.640;23.312;2022-11-22T07:59:46;17.70;;;10.25;;
20036;SDS011;10179;42.640;23.312;2022-11-22T08:02:11;17.42;;;8.25;;
20036;SDS011;10179;42.640;23.312;2022-11-22T08:04:37;17.35;;;9.73;;
20036;SDS011;10179;42.640;23.312;2022-11-22T08:07:02;11.68;;;6.00;;
20036;SDS011;10179;42.640;23.312;2022-11-22T08:09:28;8.10;;;5.47;;
20036;SDS011;10179;42.640;23.312;2022-11-22T08:11:53;7.63;;;4.80;;
20036;SDS011;10179;42.640;23.312;2022-11-22T08:14:18;6.10;;;4.10;;
20036;SDS011;10179;42.640;23.312;2022-11-22T08:16:44;6.18;;;4.05;;
20036;SDS011;10179;42.640;23.312;2022-11-22T08:19:09;4.63;;;3.13;;
20036;SDS011;10179;42.640;23.312;2022-11-22T08:21:39;7.18;;;4.05;;
20036;SDS011;10179;42.640;23.312;2022-11-22T08:24:05;6.30;;;3.92;;
20036;SDS011;10179;42.640;23.312;2022-11-22T08:26:31;6.25;;;3.83;;
20036;SDS011;10179;42.640;23.312;2022-11-22T08:28:57;6.25;;;3.67;;
20036;SDS011;10179;42.640;23.312;2022-11-22T08:31:23;5.60;;;3.03;;
20036;SDS011;10179;42.640;23.312;2022-11-22T08:33:51;3.53;;;2.67;;
20036;SDS011;10179;42.640;23.312;2022-11-22T08:36:17;5.18;;;3.13;;
20036;SDS011;10179;42.640;23.312;2022-11-22T08:38:43;4.43;;;2.90;;
20036;SDS011;10179;42.640;23.312;2022-11-22T08:41:08;4.97;;;3.63;;
20036;SDS011;10179;42.640;23.312;2022-11-22T08:43:34;15.77;;;7.20;;
20036;SDS011;10179;42.640;23.312;2022-11-22T08:46:00;10.35;;;5.97;;
20036;SDS011;10179;42.640;23.312;2022-11-22T08:48:26;14.75;;;7.78;;
20036;SDS011;10179;42.640;23.312;2022-11-22T08:50:54;16.42;;;8.00;;
20036;SDS011;10179;42.640;23.312;2022-11-22T08:53:21;12.68;;;7.95;;
20036;SDS011;10179;42.640;23.312;2022-11-22T08:55:47;10.20;;;6.07;;
20036;SDS011;10179;42.640;23.312;2022-11-22T08:58:13;11.30;;;6.50;;
20036;SDS011;10179;42.640;23.312;2022-11-22T09:00:38;13.85;;;6.90;;
20036;SDS011;10179;42.640;23.312;2022-11-22T09:03:04;18.92;;;8.60;;
20036;SDS011;10179;42.640;23.312;2022-11-22T09:05:29;14.20;;;7.63;;
20036;SDS011;10179;42.640;23.312;2022-11-22T09:07:55;12.80;;;7.60;;
20036;SDS011;10179;42.640;23.312;2022-11-22T09:10:22;12.73;;;7.35;;
20036;SDS011;10179;42.640;23.312;2022-11-22T09:12:47;12.00;;;7.40;;
20036;SDS011;10179;42.640;23.312;2022-11-22T09:15:13;12.13;;;7.25;;
20036;SDS011;10179;42.640;23.312;2022-11-22T09:17:41;14.60;;;8.23;;
20036;SDS011;10179;42.640;23.312;2022-11-22T09:20:07;12.48;;;7.47;;
20036;SDS011;10179;42.640;23.312;2022-11-22T09:22:33;20.10;;;11.63;;
20036;SDS011;10179;42.640;23.312;2022-11-22T09:24:59;24.13;;;12.65;;
20036;SDS011;10179;42.640;23.312;2022-11-22T09:27:24;17.92;;;10.35;;
20036;SDS011;10179;42.640;23.312;2022-11-22T09:29:50;21.05;;;10.57;;
20036;SDS011;10179;42.640;23.312;2022-11-22T09:32:16;16.77;;;8.65;;
20036;SDS011;10179;42.640;23.312;2022-11-22T09:34:41;15.57;;;10.38;;
20036;SDS011;10179;42.640;23.312;2022-11-22T09:37:07;16.83;;;8.75;;
20036;SDS011;10179;42.640;23.312;2022-11-22T09:39:32;16.42;;;9.07;;
20036;SDS011;10179;42.640;23.312;2022-11-22T09:44:54;14.97;;;8.67;;
20036;SDS011;10179;42.640;23.312;2022-11-22T09:47:42;19.17;;;10.80;;
20036;SDS011;10179;42.640;23.312;2022-11-22T09:53:19;17.75;;;8.43;;
20036;SDS011;10179;42.640;23.312;2022-11-22T09:55:53;10.75;;;6.03;;
20036;SDS011;10179;42.640;23.312;2022-11-22T10:00:53;12.23;;;7.40;;
20036;SDS011;10179;42.640;23.312;2022-11-22T10:03:27;10.65;;;6.75;;
20036;SDS011;10179;42.640;23.312;2022-11-22T10:05:59;11.02;;;6.13;;
20036;SDS011;10179;42.640;23.312;2022-11-22T10:08:50;14.10;;;6.05;;
20036;SDS011;10179;42.640;23.312;2022-11-22T10:11:37;14.43;;;5.38;;
20036;SDS011;10179;42.640;23.312;2022-11-22T10:14:12;10.80;;;6.15;;
20036;SDS011;10179;42.640;23.312;2022-11-22T10:16:41;11.52;;;7.28;;
20036;SDS011;10179;42.640;23.312;2022-11-22T10:19:14;12.00;;;6.47;;
20036;SDS011;10179;42.640;23.312;2022-11-22T10:21:44;11.75;;;6.57;;
20036;SDS011;10179;42.640;23.312;2022-11-22T10:24:13;10.55;;;5.68;;
20036;SDS011;10179;42.640;23.312;2022-11-22T10:26:41;9.25;;;5.32;;
20036;SDS011;10179;42.640;23.312;2022-11-22T10:47:26;9.93;;;6.15;;
20036;SDS011;10179;42.640;23.312;2022-11-22T10:50:05;11.25;;;7.10;;
20036;SDS011;10179;42.640;23.312;2022-11-22T11:08:37;11.15;;;6.53;;
20036;SDS011;10179;42.640;23.312;2022-11-22T11:11:06;12.25;;;6.60;;
20036;SDS011;10179;42.640;23.312;2022-11-22T11:13:51;26.52;;;9.70;;
20036;SDS011;10179;42.640;23.312;2022-11-22T11:16:21;15.65;;;7.93;;
20036;SDS011;10179;42.640;23.312;2022-11-22T11:18:56;13.05;;;6.88;;
20036;SDS011;10179;42.640;23.312;2022-11-22T11:21:36;13.57;;;7.50;;
20036;SDS011;10179;42.640;23.312;2022-11-22T11:24:02;16.33;;;7.05;;
20036;SDS011;10179;42.640;23.312;2022-11-22T11:26:31;16.23;;;7.95;;
20036;SDS011;10179;42.640;23.312;2022-11-22T11:31:41;13.20;;;7.47;;
20036;SDS011;10179;42.640;23.312;2022-11-22T11:34:14;10.77;;;6.65;;
20036;SDS011;10179;42.640;23.312;2022-11-22T11:36:45;12.95;;;6.65;;
20036;SDS011;10179;42.640;23.312;2022-11-22T11:39:18;20.50;;;7.82;;
20036;SDS011;10179;42.640;23.312;2022-11-22T11:41:45;15.50;;;8.57;;
20036;SDS011;10179;42.640;23.312;2022-11-22T11:44:24;14.52;;;7.35;;
20036;SDS011;10179;42.640;23.312;2022-11-22T11:46:58;15.07;;;6.88;;
20036;SDS011;10179;42.640;23.312;2022-11-22T11:49:25;16.50;;;7.78;;
20036;SDS011;10179;42.640;23.312;2022-11-22T11:51:53;15.48;;;7.80;;
20036;SDS011;10179;42.640;23.312;2022-11-22T11:54:21;16.63;;;7.53;;
20036;SDS011;10179;42.640;23.312;2022-11-22T11:56:56;13.52;;;7.93;;
20036;SDS011;10179;42.640;23.312;2022-11-22T12:04:53;13.60;;;7.45;;
20036;SDS011;10179;42.640;23.312;2022-11-22T12:09:57;18.02;;;7.68;;
20036;SDS011;10179;42.640;23.312;2022-11-22T12:12:29;18.15;;;8.10;;
20036;SDS011;10179;42.640;23.312;2022-11-22T12:23:52;15.85;;;8.20;;
20036;SDS011;10179;42.640;23.312;2022-11-22T12:26:23;20.15;;;9.27;;
20036;SDS011;10179;42.640;23.312;2022-11-22T12:28:50;16.38;;;9.15;;
20036;SDS011;10179;42.640;23.312;2022-11-22T12:36:48;18.25;;;9.50;;
20036;SDS011;10179;42.640;23.312;2022-11-22T12:39:18;22.33;;;9.73;;
20036;SDS011;10179;42.640;23.312;2022-11-22T12:41:48;19.90;;;10.13;;
20036;SDS011;10179;42.640;23.312;2022-11-22T12:44:16;19.58;;;10.73;;
20036;SDS011;10179;42.640;23.312;2022-11-22T12:46:50;22.75;;;10.40;;
20036;SDS011;10179;42.640;23.312;2022-11-22T12:49:30;23.80;;;11.20;;
20036;SDS011;10179;42.640;23.312;2022-11-22T12:52:10;26.75;;;12.23;;
20036;SDS011;10179;42.640;23.312;2022-11-22T12:54:41;19.33;;;10.18;;
20036;SDS011;10179;42.640;23.312;2022-11-22T12:57:19;18.77;;;9.40;;
20036;SDS011;10179;42.640;23.312;2022-11-22T13:05:09;21.80;;;11.40;;
20036;SDS011;10179;42.640;23.312;2022-11-22T13:07:55;24.08;;;12.13;;
20036;SDS011;10179;42.640;23.312;2022-11-22T13:10:33;19.83;;;10.68;;
20036;SDS011;10179;42.640;23.312;2022-11-22T13:13:09;21.92;;;11.52;;
20036;SDS011;10179;42.640;23.312;2022-11-22T13:15:57;25.90;;;11.10;;
20036;SDS011;10179;42.640;23.312;2022-11-22T13:18:29;23.25;;;11.35;;
20036;SDS011;10179;42.640;23.312;2022-11-22T13:29:20;22.08;;;11.15;;
20036;SDS011;10179;42.640;23.312;2022-11-22T13:34:36;21.65;;;10.25;;
20036;SDS011;10179;42.640;23.312;2022-11-22T13:37:09;23.60;;;11.32;;
20036;SDS011;10179;42.640;23.312;2022-11-22T13:39:39;21.25;;;10.07;;
20036;SDS011;10179;42.640;23.312;2022-11-22T13:42:08;20.38;;;10.98;;
20036;SDS011;10179;42.640;23.312;2022-11-22T13:49:47;18.17;;;9.18;;
20036;SDS011;10179;42.640;23.312;2022-11-22T13:57:23;15.48;;;8.95;;
20036;SDS011;10179;42.640;23.312;2022-11-22T14:02:49;17.55;;;8.65;;
20036;SDS011;10179;42.640;23.312;2022-11-22T14:07:55;17.88;;;9.73;;
20036;SDS011;10179;42.640;23.312;2022-11-22T14:10:25;18.30;;;10.02;;
20036;SDS011;10179;42.640;23.312;2022-11-22T14:16:04;19.90;;;10.43;;
20036;SDS011;10179;42.640;23.312;2022-11-22T14:18:48;19.77;;;10.15;;
20036;SDS011;10179;42.640;23.312;2022-11-22T14:24:23;16.13;;;8.35;;
20036;SDS011;10179;42.640;23.312;2022-11-22T14:27:01;14.57;;;7.55;;
20036;SDS011;10179;42.640;23.312;2022-11-22T14:32:49;17.13;;;8.60;;
20036;SDS011;10179;42.640;23.312;2022-11-22T14:35:20;19.27;;;10.23;;
20036;SDS011;10179;42.640;23.312;2022-11-22T14:40:47;19.77;;;10.68;;
20036;SDS011;10179;42.640;23.312;2022-11-22T14:45:52;13.77;;;6.55;;
20036;SDS011;10179;42.640;23.312;2022-11-22T14:48:27;10.80;;;5.10;;
20036;SDS011;10179;42.640;23.312;2022-11-22T14:58:54;5.97;;;4.00;;
20036;SDS011;10179;42.640;23.312;2022-11-22T15:08:19;9.13;;;5.45;;
20036;SDS011;10179;42.640;23.312;2022-11-22T15:16:24;9.65;;;4.88;;
20036;SDS011;10179;42.640;23.312;2022-11-22T15:18:52;17.08;;;8.60;;
20036;SDS011;10179;42.640;23.312;2022-11-22T15:21:28;17.15;;;9.30;;
20036;SDS011;10179;42.640;23.312;2022-11-22T15:23:58;14.50;;;6.70;;
20036;SDS011;10179;42.640;23.312;2022-11-22T15:26:25;10.98;;;5.55;;
20036;SDS011;10179;42.640;23.312;2022-11-22T15:28:53;9.85;;;4.30;;
20036;SDS011;10179;42.640;23.312;2022-11-22T15:31:41;8.73;;;4.68;;
20036;SDS011;10179;42.640;23.312;2022-11-22T15:34:14;13.90;;;7.30;;
20036;SDS011;10179;42.640;23.312;2022-11-22T15:36:49;18.92;;;9.18;;
20036;SDS011;10179;42.640;23.312;2022-11-22T15:39:23;19.15;;;10.18;;
20036;SDS011;10179;42.640;23.312;2022-11-22T15:41:53;18.05;;;10.02;;
20036;SDS011;10179;42.640;23.312;2022-11-22T15:44:21;19.77;;;10.27;;
20036;SDS011;10179;42.640;23.312;2022-11-22T15:46:47;19.92;;;10.40;;
20036;SDS011;10179;42.640;23.312;2022-11-22T15:49:16;22.70;;;9.50;;
20036;SDS011;10179;42.640;23.312;2022-11-22T15:51:56;18.20;;;9.45;;
20036;SDS011;10179;42.640;23.312;2022-11-22T15:54:23;15.68;;;9.15;;
20036;SDS011;10179;42.640;23.312;2022-11-22T15:57:00;16.52;;;9.38;;
20036;SDS011;10179;42.640;23.312;2022-11-22T15:59:36;12.27;;;7.20;;
20036;SDS011;10179;42.640;23.312;2022-11-22T16:02:18;7.70;;;4.22;;
20036;SDS011;10179;42.640;23.312;2022-11-22T16:07:24;11.88;;;7.30;;
20036;SDS011;10179;42.640;23.312;2022-11-22T16:09:56;17.60;;;8.38;;
20036;SDS011;10179;42.640;23.312;2022-11-22T16:12:29;14.63;;;6.72;;
20036;SDS011;10179;42.640;23.312;2022-11-22T16:17:51;12.98;;;7.07;;
20036;SDS011;10179;42.640;23.312;2022-11-22T16:25:30;9.32;;;4.85;;
20036;SDS011;10179;42.640;23.312;2022-11-22T16:27:57;9.10;;;5.38;;
20036;SDS011;10179;42.640;23.312;2022-11-22T16:30:26;7.25;;;4.53;;
20036;SDS011;10179;42.640;23.312;2022-11-22T16:32:52;6.10;;;3.75;;
20036;SDS011;10179;42.640;23.312;2022-11-22T16:35:19;13.43;;;7.43;;
20036;SDS011;10179;42.640;23.312;2022-11-22T16:37:45;9.65;;;6.60;;
20036;SDS011;10179;42.640;23.312;2022-11-22T16:40:11;7.57;;;4.93;;
20036;SDS011;10179;42.640;23.312;2022-11-22T16:42:38;10.90;;;5.60;;
20036;SDS011;10179;42.640;23.312;2022-11-22T16:45:13;13.00;;;6.40;;
20036;SDS011;10179;42.640;23.312;2022-11-22T16:47:41;15.50;;;8.55;;
20036;SDS011;10179;42.640;23.312;2022-11-22T16:50:09;15.70;;;8.05;;
20036;SDS011;10179;42.640;23.312;2022-11-22T16:52:36;13.90;;;7.25;;
20036;SDS011;10179;42.640;23.312;2022-11-22T16:55:03;12.30;;;6.30;;
20036;SDS011;10179;42.640;23.312;2022-11-22T16:57:29;10.82;;;6.40;;
20036;SDS011;10179;42.640;23.312;2022-11-22T16:59:54;9.20;;;5.25;;
20036;SDS011;10179;42.640;23.312;2022-11-22T17:02:20;9.25;;;4.50;;
20036;SDS011;10179;42.640;23.312;2022-11-22T17:04:45;9.82;;;4.88;;
20036;SDS011;10179;42.640;23.312;2022-11-22T17:07:12;8.85;;;4.60;;
20036;SDS011;10179;42.640;23.312;2022-11-22T17:09:38;6.88;;;4.22;;
20036;SDS011;10179;42.640;23.312;2022-11-22T17:12:19;6.18;;;3.78;;
20036;SDS011;10179;42.640;23.312;2022-11-22T17:14:48;6.80;;;3.63;;